Home > Products > Valid Products > TAF

000
FTUS41 KGYX 071123
TAFPWM
TAF
KPWM 071123Z 0712/0812 22006KT P6SM SCT080
     FM072100 04006KT P6SM SCT100
     FM080900 03014G22KT P6SM BKN100=



000
FTUS41 KGYX 071123
TAFAUG
TAF
KAUG 071123Z 0712/0812 20006KT P6SM SCT250
     FM072000 02008KT P6SM SCT050 SCT100=



000
FTUS41 KGYX 071123
TAFPSM
TAF
KPSM 071123Z 0712/0812 22008KT P6SM SCT250
     FM072200 05009KT P6SM SCT100
     FM080900 03014G25KT P6SM BKN100=



000
FTUS41 KGYX 071123
TAFLEB
TAF
KLEB 071123Z 0712/0812 19010KT P6SM SCT050
     FM072200 VRB03KT P6SM SCT050 BKN100=



000
FTUS41 KGYX 071123
TAFCON
TAF
KCON 071123Z 0712/0812 22006KT P6SM SCT250
     FM072200 02006KT P6SM SCT100
     FM080900 01014KT P6SM BKN100=



000
FTUS41 KGYX 070925 AAA
TAFCON
TAF AMD
KCON 070925Z 0709/0806 22006KT P6SM SCT250
     FM072200 02006KT P6SM SCT100=



000
FTUS41 KGYX 070925 AAA
TAFLEB
TAF AMD
KLEB 070925Z 0709/0806 19010KT P6SM SCT050
     FM072200 VRB03KT P6SM SCT050 BKN100=



000
FTUS41 KGYX 070925 AAA
TAFPSM
TAF AMD
KPSM 070925Z 0709/0806 22008KT P6SM SCT250
     FM072200 05009KT P6SM SCT100=



000
FTUS41 KGYX 070925 AAA
TAFPWM
TAF AMD
KPWM 070925Z 0709/0806 22008KT P6SM SCT250
     FM071200 VRB03KT P6SM SCT080
     FM072100 04006KT P6SM SCT100=



000
FTUS41 KGYX 070925 AAA
TAFAUG
TAF AMD
KAUG 070925Z 0709/0806 20006KT P6SM SCT250
     FM072000 02008KT P6SM SCT050 SCT100=



000
FTUS41 KGYX 070524
TAFLEB
TAF
KLEB 070524Z 0706/0806 19010KT P6SM SCT050
     FM072200 VRB03KT P6SM SCT050 BKN100=



000
FTUS41 KGYX 070524
TAFPSM
TAF
KPSM 070524Z 0706/0806 22008KT P6SM SCT250
     FM072200 05009KT P6SM SCT100=



000
FTUS41 KGYX 070524
TAFPWM
TAF
KPWM 070524Z 0706/0806 22008KT P6SM SCT250
     FM071200 VRB03KT P6SM SCT080
     FM072100 04006KT P6SM SCT100=



000
FTUS41 KGYX 070524
TAFCON
TAF
KCON 070524Z 0706/0806 22006KT P6SM SCT250
     FM072200 02006KT P6SM SCT100=



000
FTUS41 KGYX 070524
TAFAUG
TAF
KAUG 070524Z 0706/0806 20006KT P6SM SCT250
     FM072000 02008KT P6SM SCT050 SCT100=



000
FTUS41 KGYX 062320
TAFPSM
TAF
KPSM 062320Z 0700/0724 22008KT P6SM SCT150
     FM070900 VRB03KT P6SM SCT200
     FM072200 02006KT P6SM SCT200=



000
FTUS41 KGYX 062320
TAFPSM
TAF
KPSM 062320Z 0700/0724 22008KT P6SM SCT150
     FM070900 VRB03KT P6SM SCT200
     FM072200 02006KT P6SM SCT200=



000
FTUS41 KGYX 062320
TAFPWM
TAF
KPWM 062320Z 0700/0724 22008KT P6SM SCT150
     FM071200 VRB03KT P6SM SCT200
     FM072100 02006KT P6SM SCT200=



000
FTUS41 KGYX 062320
TAFPWM
TAF
KPWM 062320Z 0700/0724 22008KT P6SM SCT150
     FM071200 VRB03KT P6SM SCT200
     FM072100 02006KT P6SM SCT200=



000
FTUS41 KGYX 062320
TAFCON
TAF
KCON 062320Z 0700/0724 20007KT P6SM SCT150
     FM070600 VRB03KT P6SM SCT200
     FM072200 02006KT P6SM SCT200=



000
FTUS41 KGYX 062320
TAFAUG
TAF
KAUG 062320Z 0700/0724 21009KT P6SM SCT150
     FM070600 VRB03KT P6SM SCT200
     FM072000 02006KT P6SM SCT200=



000
FTUS41 KGYX 062320
TAFLEB
TAF
KLEB 062320Z 0700/0724 20005KT P6SM BKN050
     FM070600 VRB03KT P6SM SCT050 BKN200=



000
FTUS41 KGYX 062320
TAFCON
TAF
KCON 062320Z 0700/0724 20007KT P6SM SCT150
     FM070600 VRB03KT P6SM SCT200
     FM072200 02006KT P6SM SCT200=



000
FTUS41 KGYX 062320
TAFAUG
TAF
KAUG 062320Z 0700/0724 21009KT P6SM SCT150
     FM070600 VRB03KT P6SM SCT200
     FM072000 02006KT P6SM SCT200=



000
FTUS41 KGYX 062320
TAFLEB
TAF
KLEB 062320Z 0700/0724 20005KT P6SM BKN050
     FM070600 VRB03KT P6SM SCT050 BKN200=



000
FTUS41 KGYX 061720
TAFAUG
TAF
KAUG 061720Z 0618/0718 21009KT P6SM SCT150=



000
FTUS41 KGYX 061720
TAFLEB
TAF
KLEB 061720Z 0618/0718 20009KT P6SM SCT150=



000
FTUS41 KGYX 061720
TAFPSM
TAF
KPSM 061720Z 0618/0718 22008KT P6SM SCT150=



000
FTUS41 KGYX 061720
TAFPWM
TAF
KPWM 061720Z 0618/0718 22008KT P6SM SCT150=



000
FTUS41 KGYX 061720
TAFCON
TAF
KCON 061720Z 0618/0718 20007KT P6SM SCT150=



000
FTUS41 KGYX 061120 AAB
TAFPSM
TAF AMD
KPSM 061120Z 0611/0706 29009KT P6SM SKC
     FM061400 22009KT P6SM SCT050 SCT100=



000
FTUS41 KGYX 061120 AAB
TAFPSM
TAF AMD
KPSM 061120Z 0611/0706 29009KT P6SM SKC
     FM061400 22009KT P6SM SCT050 SCT100=



000
FTUS41 KGYX 061120 AAB
TAFPWM
TAF AMD
KPWM 061120Z 0611/0706 29009KT P6SM SCT250
     FM061400 22008KT P6SM SCT050 SCT100=



000
FTUS41 KGYX 061120 AAB
TAFCON
TAF AMD
KCON 061120Z 0611/0706 32005KT P6SM SKC
     FM061400 22006KT P6SM SCT050 SCT100=



000
FTUS41 KGYX 061120 AAB
TAFLEB
TAF AMD
KLEB 061120Z 0611/0706 VRB03KT P6SM SKC
     FM061400 20007KT P6SM SCT050 SCT100
     FM062200 19006KT P6SM BKN035=



000
FTUS41 KGYX 061120 AAB
TAFLEB
TAF AMD
KLEB 061120Z 0611/0706 VRB03KT P6SM SKC
     FM061400 20007KT P6SM SCT050 SCT100
     FM062200 19006KT P6SM BKN035=



000
FTUS41 KGYX 061120 AAB
TAFAUG
TAF AMD
KAUG 061120Z 0611/0706 31008KT P6SM SKC
     FM061400 22007KT P6SM SCT050 SCT100=



000
FTUS41 KGYX 061120 AAB
TAFPWM
TAF AMD
KPWM 061120Z 0611/0706 29009KT P6SM SCT250
     FM061400 22008KT P6SM SCT050 SCT100=



000
FTUS41 KGYX 061120 AAB
TAFCON
TAF AMD
KCON 061120Z 0611/0706 32005KT P6SM SKC
     FM061400 22006KT P6SM SCT050 SCT100=



000
FTUS41 KGYX 061120 AAB
TAFAUG
TAF AMD
KAUG 061120Z 0611/0706 31008KT P6SM SKC
     FM061400 22007KT P6SM SCT050 SCT100=



000
FTUS41 KGYX 060901 AAA
TAFPSM
TAF AMD
KPSM 060901Z 0609/0706 29009KT P6SM SKC
     FM061400 22009KT P6SM SCT050 SCT100=



000
FTUS41 KGYX 060901 AAA
TAFCON
TAF AMD
KCON 060901Z 0609/0706 32005KT P6SM SKC
     FM061400 22006KT P6SM SCT050 SCT100=



000
FTUS41 KGYX 060901 AAA
TAFAUG
TAF AMD
KAUG 060901Z 0609/0706 31008KT P6SM SKC
     FM061400 22007KT P6SM SCT050 SCT100=



000
FTUS41 KGYX 060901 AAA
TAFPWM
TAF AMD
KPWM 060901Z 0609/0706 29009KT P6SM SCT250
     FM061400 22008KT P6SM SCT050 SCT100=



000
FTUS41 KGYX 060901 AAA
TAFLEB
TAF AMD
KLEB 060901Z 0609/0706 VRB03KT P6SM SKC
     FM061400 20007KT P6SM SCT050 SCT100
     FM062200 19006KT P6SM BKN035=



000
FTUS41 KGYX 060520
TAFLEB
TAF
KLEB 060520Z 0606/0706 VRB03KT P6SM SKC
     FM061400 20007KT P6SM SCT050 SCT100
     FM062200 19006KT P6SM BKN035=



000
FTUS41 KGYX 060520
TAFPWM
TAF
KPWM 060520Z 0606/0706 29009KT P6SM SCT250
     FM061400 22008KT P6SM SCT050 SCT100=



000
FTUS41 KGYX 060520
TAFCON
TAF
KCON 060520Z 0606/0706 32005KT P6SM SKC
     FM061400 22006KT P6SM SCT050 SCT100=



000
FTUS41 KGYX 060520
TAFAUG
TAF
KAUG 060520Z 0606/0706 31008KT P6SM SKC
     FM061400 22007KT P6SM SCT050 SCT100=



000
FTUS41 KGYX 060520
TAFPSM
TAF
KPSM 060520Z 0606/0706 29009KT P6SM SKC
     FM061400 22009KT P6SM SCT050 SCT100=



000
FTUS41 KGYX 060006 AAA
TAFCON
TAF AMD
KCON 060006Z 0600/0624 31014G24KT P6SM SCT120
     FM060300 VRB03KT P6SM SKC
     FM061400 23004KT P6SM SCT250
     FM061700 21007KT P6SM SCT050 BKN200=



000
FTUS41 KGYX 060006 AAA
TAFCON
TAF AMD
KCON 060006Z 0600/0624 31014G24KT P6SM SCT120
     FM060300 VRB03KT P6SM SKC
     FM061400 23004KT P6SM SCT250
     FM061700 21007KT P6SM SCT050 BKN200=



000
FTUS41 KGYX 060003 AAA
TAFPWM
TAF AMD
KPWM 060003Z 0600/0624 32014G22KT P6SM SCT100
     FM060200 30007KT P6SM SCT120
     FM061400 22005KT P6SM SCT250
     FM061700 22009KT P6SM SCT050 BKN200=



000
FTUS41 KGYX 060003 AAA
TAFPWM
TAF AMD
KPWM 060003Z 0600/0624 32014G22KT P6SM SCT100
     FM060200 30007KT P6SM SCT120
     FM061400 22005KT P6SM SCT250
     FM061700 22009KT P6SM SCT050 BKN200=



000
FTUS41 KGYX 052321
TAFAUG
TAF
KAUG 052321Z 0600/0624 32010KT P6SM SCT020 BKN040 BKN070
     FM060200 30006KT P6SM SKC
     FM061400 22004KT P6SM SCT250
     FM061700 21007KT P6SM SCT050 BKN200=



000
FTUS41 KGYX 052321
TAFCON
TAF
KCON 052321Z 0600/0624 32010KT P6SM SCT120
     FM060300 VRB03KT P6SM SKC
     FM061400 23004KT P6SM SCT250
     FM061700 21007KT P6SM SCT050 BKN200=



000
FTUS41 KGYX 052321
TAFPWM
TAF
KPWM 052321Z 0600/0624 32012KT P6SM SCT050 SCT100
     FM060200 30007KT P6SM SCT120
     FM061400 22005KT P6SM SCT250
     FM061700 22009KT P6SM SCT050 BKN200=



000
FTUS41 KGYX 052321
TAFPSM
TAF
KPSM 052321Z 0600/0624 29008KT P6SM SCT080 SCT120
     FM061400 23004KT P6SM SCT250
     FM061700 21009KT P6SM FEW050 BKN200=



000
FTUS41 KGYX 052321
TAFAUG
TAF
KAUG 052321Z 0600/0624 32010KT P6SM SCT020 BKN040 BKN070
     FM060200 30006KT P6SM SKC
     FM061400 22004KT P6SM SCT250
     FM061700 21007KT P6SM SCT050 BKN200=



000
FTUS41 KGYX 052321
TAFPSM
TAF
KPSM 052321Z 0600/0624 29008KT P6SM SCT080 SCT120
     FM061400 23004KT P6SM SCT250
     FM061700 21009KT P6SM FEW050 BKN200=



000
FTUS41 KGYX 052321
TAFCON
TAF
KCON 052321Z 0600/0624 32010KT P6SM SCT120
     FM060300 VRB03KT P6SM SKC
     FM061400 23004KT P6SM SCT250
     FM061700 21007KT P6SM SCT050 BKN200=



000
FTUS41 KGYX 052321
TAFLEB
TAF
KLEB 052321Z 0600/0624 33006KT P6SM SCT040
     FM060400 VRB03KT P6SM SKC
     FM061400 19004KT P6SM SCT250
     FM061700 21007KT P6SM SCT050 BKN200=



000
FTUS41 KGYX 052321
TAFPWM
TAF
KPWM 052321Z 0600/0624 32012KT P6SM SCT050 SCT100
     FM060200 30007KT P6SM SCT120
     FM061400 22005KT P6SM SCT250
     FM061700 22009KT P6SM SCT050 BKN200=



000
FTUS41 KGYX 052321
TAFLEB
TAF
KLEB 052321Z 0600/0624 33006KT P6SM SCT040
     FM060400 VRB03KT P6SM SKC
     FM061400 19004KT P6SM SCT250
     FM061700 21007KT P6SM SCT050 BKN200=



000
FTUS41 KGYX 052248 AAD
TAFPSM
TAF AMD
KPSM 052248Z 0523/0618 32008KT P6SM SCT025 BKN040 BKN080
     FM060000 32015G20KT P6SM SCT040 BKN100
     FM061400 26005KT P6SM SCT050=



000
FTUS41 KGYX 052147 AAD
TAFCON
TAF AMD
KCON 052147Z 0522/0618 32008KT P6SM SCT045 BKN070
     FM052300 32010KT P6SM SCT040 SCT100
     FM061400 23005KT P6SM SCT050=



000
FTUS41 KGYX 052147 AAD
TAFCON
TAF AMD
KCON 052147Z 0522/0618 32008KT P6SM SCT045 BKN070
     FM052300 32010KT P6SM SCT040 SCT100
     FM061400 23005KT P6SM SCT050=



000
FTUS41 KGYX 052145 AAC
TAFAUG
TAF AMD
KAUG 052145Z 0522/0618 34012KT 1 1/2SM -SHSN OVC015
     FM052300 32010KT P6SM SCT020 SCT040 BKN080
     FM061400 22005KT P6SM SCT040 BKN080=



000
FTUS41 KGYX 052145 AAC
TAFAUG
TAF AMD
KAUG 052145Z 0522/0618 34012KT 1 1/2SM -SHSN OVC015
     FM052300 32010KT P6SM SCT020 SCT040 BKN080
     FM061400 22005KT P6SM SCT040 BKN080=



000
FTUS41 KGYX 052143 AAC
TAFPSM
TAF AMD
KPSM 052143Z 0522/0618 32012KT 1 1/2SM -SHSN BKN015 OVC025
     FM052300 32015G20KT P6SM SCT040 BKN100
     FM061400 26005KT P6SM SCT050=



000
FTUS41 KGYX 052142 AAC
TAFPWM
TAF AMD
KPWM 052142Z 0522/0618 35015G25KT 1 1/2SM -SN BR OVC020
     FM052300 32015KT P6SM -SHSN SCT030 BKN100
     FM060100 33012KT P6SM SCT100
     FM061400 23006KT P6SM SCT050=



000
FTUS41 KGYX 052036 AAB
TAFAUG
TAF AMD
KAUG 052036Z 0521/0618 34014G22KT 1SM -SN OVC015
     FM052200 34014G22KT 3SM -SHSN SCT020 BKN035 OVC070
     FM052300 32010KT P6SM SCT040 BKN080
     FM061400 22005KT P6SM SCT040 BKN080=



000
FTUS41 KGYX 052035 AAC
TAFCON
TAF AMD
KCON 052035Z 0521/0618 32012G22KT P6SM SCT045 BKN070
     FM052300 32010KT P6SM SCT040 SCT100
     FM061400 23005KT P6SM SCT050=



000
FTUS41 KGYX 051920 AAB
TAFCON
TAF AMD
KCON 051920Z 0519/0618 31008KT P6SM BKN035 OVC060
      TEMPO 0519/0521 3SM -SHSN BKN030 OVC060
     FM052100 32014G22KT 3SM -SHSN BR BKN045 BKN080
     FM052300 32010KT P6SM SCT040 SCT100
     FM061400 23005KT P6SM SCT050=



000
FTUS41 KGYX 051920 AAB
TAFCON
TAF AMD
KCON 051920Z 0519/0618 31008KT P6SM BKN035 OVC060
      TEMPO 0519/0521 3SM -SHSN BKN030 OVC060
     FM052100 32014G22KT 3SM -SHSN BR BKN045 BKN080
     FM052300 32010KT P6SM SCT040 SCT100
     FM061400 23005KT P6SM SCT050=



000
FTUS41 KGYX 051912 AAA
TAFLEB
TAF AMD
KLEB 051912Z 0519/0618 34014G20KT P6SM BKN040
     FM060000 34010KT P6SM SCT040
     FM061400 20007KT P6SM SCT040=



000
FTUS41 KGYX 051912 AAB
TAFPSM
TAF AMD
KPSM 051912Z 0519/0618 35006KT 1/4SM SN FZFG SCT003 OVC006
     FM052000 36010G16KT 1/2SM SN FZFG OVC008
     FM052100 34012G20KT 3SM -SHSN BKN015 OVC025
     FM052300 32015G20KT P6SM SCT040 BKN100
     FM061400 26005KT P6SM SCT050=



000
FTUS41 KGYX 051912 AAB
TAFPWM
TAF AMD
KPWM 051912Z 0519/0618 35015G25KT 1/4SM +SN FZFG OVC015
     FM052030 34015G25KT 4SM -SN BR SCT008 OVC012
     FM052300 32015KT P6SM SCT030 BKN100
     FM061400 23006KT P6SM SCT050=



000
FTUS41 KGYX 051912 AAA
TAFCON
TAF AMD
KCON 051912Z 0519/0618 33012G18KT 2SM -SN BR OVC025
     FM052000 32014G22KT 3SM -SHSN BR OVC025
     FM052100 32010KT P6SM SCT040 SCT100
     FM061400 23005KT P6SM SCT050=



000
FTUS41 KGYX 051912 AAA
TAFCON
TAF AMD
KCON 051912Z 0519/0618 33012G18KT 2SM -SN BR OVC025
     FM052000 32014G22KT 3SM -SHSN BR OVC025
     FM052100 32010KT P6SM SCT040 SCT100
     FM061400 23005KT P6SM SCT050=



000
FTUS41 KGYX 051912 AAA
TAFLEB
TAF AMD
KLEB 051912Z 0519/0618 34014G20KT P6SM BKN040
     FM060000 34010KT P6SM SCT040
     FM061400 20007KT P6SM SCT040=



000
FTUS41 KGYX 051912 AAB
TAFPSM
TAF AMD
KPSM 051912Z 0519/0618 35006KT 1/4SM SN FZFG SCT003 OVC006
     FM052000 36010G16KT 1/2SM SN FZFG OVC008
     FM052100 34012G20KT 3SM -SHSN BKN015 OVC025
     FM052300 32015G20KT P6SM SCT040 BKN100
     FM061400 26005KT P6SM SCT050=



000
FTUS41 KGYX 051912 AAB
TAFPWM
TAF AMD
KPWM 051912Z 0519/0618 35015G25KT 1/4SM +SN FZFG OVC015
     FM052030 34015G25KT 4SM -SN BR SCT008 OVC012
     FM052300 32015KT P6SM SCT030 BKN100
     FM061400 23006KT P6SM SCT050=



000
FTUS41 KGYX 051842 AAA
TAFPSM
TAF AMD
KPSM 051842Z 0519/0618 36010G16KT 1/2SM SN FZFG SCT006 OVC015
     FM052100 34012G20KT 3SM -SHSN BKN015 OVC025
     FM052300 32015G20KT P6SM SCT040 BKN100
     FM061400 26005KT P6SM SCT050=



000
FTUS41 KGYX 051842 AAA
TAFPSM
TAF AMD
KPSM 051842Z 0519/0618 36010G16KT 1/2SM SN FZFG SCT006 OVC015
     FM052100 34012G20KT 3SM -SHSN BKN015 OVC025
     FM052300 32015G20KT P6SM SCT040 BKN100
     FM061400 26005KT P6SM SCT050=



000
FTUS41 KGYX 051828 AAA
TAFPWM
TAF AMD
KPWM 051828Z 0518/0618 35015G25KT 1/4SM +SN FZFG VV005
     FM052000 34015G25KT 4SM -SN BR SCT008 OVC012
     FM052300 32015KT P6SM SCT030 BKN100
     FM061400 23006KT P6SM SCT050=



000
FTUS41 KGYX 051803 AAA
TAFAUG
TAF AMD
KAUG 051803Z 0518/0618 34014G22KT 1/2SM SN VV008
      TEMPO 0518/0521 1/4SM +SN VV006
     FM052100 34014G22KT 3SM -SHSN SCT020 BKN035 OVC070
     FM052300 32010KT P6SM SCT040 BKN080
     FM061400 22005KT P6SM SCT040 BKN080=



000
FTUS41 KGYX 051735
TAFAUG
TAF
KAUG 051735Z 0518/0618 34014KT 1/4SM +SN VV006
     FM052000 35014G22KT 1/2SM SN VV008
     FM052100 34014G22KT 3SM -SHSN SCT020 BKN035 OVC070
     FM052300 32010KT P6SM SCT040 BKN080
     FM061400 22005KT P6SM SCT040 BKN080=



000
FTUS41 KGYX 051735
TAFCON
TAF
KCON 051735Z 0518/0618 33012G18KT 1/2SM SN FZFG VV008
     FM051900 32014G22KT 3SM -SHSN BR BKN015 OVC024
     FM052100 32010KT P6SM SCT040 SCT100
     FM061400 23005KT P6SM SCT050=



000
FTUS41 KGYX 051735
TAFLEB
TAF
KLEB 051735Z 0518/0618 34014G20KT P6SM BKN080
     FM061400 20007KT P6SM SCT040=



000
FTUS41 KGYX 051735
TAFPSM
TAF
KPSM 051735Z 0518/0618 36010G16KT 1/2SM SN FZFG OVC006
      TEMPO 0518/0521 1/4SM +SN FZFG VV004
     FM052100 34012G20KT 3SM -SHSN BKN015 OVC025
     FM052300 32015G20KT P6SM SCT040 BKN100
     FM061400 26005KT P6SM SCT050=



000
FTUS41 KGYX 051735
TAFPWM
TAF
KPWM 051735Z 0518/0618 35012KT 1/4SM +SN FZFG VV005
     FM052000 34015G25KT 4SM -SN BR SCT008 OVC012
     FM052300 32015KT P6SM SCT030 BKN100
     FM061400 23006KT P6SM SCT050=



000
FTUS41 KGYX 051704 AAB
TAFLEB
TAF AMD
KLEB 051704Z 0517/0612 34014G20KT P6SM -SHSN BKN050 OVC100
     FM051900 34009KT P6SM SCT045 BKN100=



000
FTUS41 KGYX 051704 AAC
TAFAUG
TAF AMD
KAUG 051704Z 0517/0612 33012KT 1/4SM +SN VV008
     FM051800 34014KT 1/2SM SN OVC012
     FM051900 34014KT 4SM -SHSN SCT020 BKN035 OVC070
     FM052300 32010KT P6SM SCT040 BKN080=



000
FTUS41 KGYX 051704 AAB
TAFPSM
TAF AMD
KPSM 051704Z 0517/0612 36010G16KT 1/2SM SN FZFG VV004
      TEMPO 0517/0519 1/4SM +SN FZFG OVC005
     FM052000 32015G25KT P6SM -SHSN BKN035 BKN080
     FM052300 32015G20KT P6SM SCT040 BKN100=



000
FTUS41 KGYX 051704 AAC
TAFCON
TAF AMD
KCON 051704Z 0517/0612 31006KT 1/4SM +SN VV008
     FM051730 32010KT 1/2SM SN BKN012
     FM051800 33012KT P6SM -SHSN BKN035 OVC080
     FM052100 32010KT P6SM SCT040 SCT100=



000
FTUS41 KGYX 051704 AAC
TAFCON
TAF AMD
KCON 051704Z 0517/0612 31006KT 1/4SM +SN VV008
     FM051730 32010KT 1/2SM SN BKN012
     FM051800 33012KT P6SM -SHSN BKN035 OVC080
     FM052100 32010KT P6SM SCT040 SCT100=



000
FTUS41 KGYX 051704 AAB
TAFLEB
TAF AMD
KLEB 051704Z 0517/0612 34014G20KT P6SM -SHSN BKN050 OVC100
     FM051900 34009KT P6SM SCT045 BKN100=



000
FTUS41 KGYX 051704 AAC
TAFAUG
TAF AMD
KAUG 051704Z 0517/0612 33012KT 1/4SM +SN VV008
     FM051800 34014KT 1/2SM SN OVC012
     FM051900 34014KT 4SM -SHSN SCT020 BKN035 OVC070
     FM052300 32010KT P6SM SCT040 BKN080=



000
FTUS41 KGYX 051704 AAB
TAFPSM
TAF AMD
KPSM 051704Z 0517/0612 36010G16KT 1/2SM SN FZFG VV004
      TEMPO 0517/0519 1/4SM +SN FZFG OVC005
     FM052000 32015G25KT P6SM -SHSN BKN035 BKN080
     FM052300 32015G20KT P6SM SCT040 BKN100=



000
FTUS41 KGYX 051619 AAB
TAFAUG
TAF AMD
KAUG 051619Z 0516/0612 36012KT 1/2SM SN VV008
      TEMPO 0516/0518 1/4SM +SN VV005
     FM051900 34014KT 4SM -SHSN SCT020 BKN035 OVC070
     FM052300 32010KT P6SM SCT040 BKN080=



000
FTUS41 KGYX 051610 AAA
TAFLEB
TAF AMD
KLEB 051610Z 0516/0612 01007G15KT P6SM -SHSN BKN050 OVC100
     FM051900 34009KT P6SM SCT045 BKN100=



000
FTUS41 KGYX 051609 AAA
TAFPSM
TAF AMD
KPSM 051609Z 0516/0612 36010G16KT 1/2SM SN OVC012
      TEMPO 0516/0519 1/4SM +SN OVC005
     FM052000 32015G25KT P6SM -SHSN BKN035 BKN080
     FM052300 32015G20KT P6SM SCT040 BKN100=



000
FTUS41 KGYX 051608 AAB
TAFCON
TAF AMD
KCON 051608Z 0516/0612 34012G18KT 1/2SM SN OVC015
      TEMPO 0516/0517 1/4SM +SN OVC006
     FM051800 33012KT P6SM -SHSN BKN035 OVC080
     FM052100 32010KT P6SM SCT040 SCT100=



000
FTUS41 KGYX 051608 AAB
TAFCON
TAF AMD
KCON 051608Z 0516/0612 34012G18KT 1/2SM SN OVC015
      TEMPO 0516/0517 1/4SM +SN OVC006
     FM051800 33012KT P6SM -SHSN BKN035 OVC080
     FM052100 32010KT P6SM SCT040 SCT100=



000
FTUS41 KGYX 051607 AAB
TAFPWM
TAF AMD
KPWM 051607Z 0516/0612 36010KT 1/2SM SN FG OVC012
      TEMPO 0516/0518 1/4SM +SN OVC006
     FM052000 34015G25KT 4SM -SN BR SCT008 OVC012
     FM052300 32015KT P6SM SCT030 BKN100=



000
FTUS41 KGYX 051506 AAA
TAFPWM
TAF AMD
KPWM 051506Z 0515/0612 36015G25KT 1/2SM SN FG VV006
      TEMPO 0515/0518 1/4SM +SN
     FM052000 34015G25KT 4SM -SN BR SCT008 OVC012
     FM052300 32015KT P6SM SCT030 BKN100=



000
FTUS41 KGYX 051427 AAA
TAFCON
TAF AMD
KCON 051427Z 0514/0612 34010KT 1/2SM SN OVC008
      TEMPO 0514/0518 1/4SM +SN OVC005
     FM051800 33012KT P6SM -SHSN BKN035 OVC080
     FM052100 32010KT P6SM SCT040 SCT100=



000
FTUS41 KGYX 051227 AAA
TAFAUG
TAF AMD
KAUG 051227Z 0512/0612 01010G18KT 3/4SM -SN VV015
     FM051500 36012KT 1/2SM SN VV006
     FM051900 34014KT 4SM -SHSN SCT020 BKN035 OVC070
     FM052300 32010KT P6SM SCT040 BKN080=



000
FTUS41 KGYX 051227 AAA
TAFAUG
TAF AMD
KAUG 051227Z 0512/0612 01010G18KT 3/4SM -SN VV015
     FM051500 36012KT 1/2SM SN VV006
     FM051900 34014KT 4SM -SHSN SCT020 BKN035 OVC070
     FM052300 32010KT P6SM SCT040 BKN080=



000
FTUS41 KGYX 051136
TAFCON
TAF
KCON 051136Z 0512/0612 34005KT 1SM -SN BR OVC017
     FM051300 34010KT 3/4SM -SN OVC008
     FM051800 33012KT P6SM -SHSN BKN035 OVC080
     FM052100 32010KT P6SM SCT040 SCT100=



000
FTUS41 KGYX 051136
TAFPWM
TAF
KPWM 051136Z 0512/0612 01007KT 1 1/2SM -SN BR OVC017
     FM051300 36015G25KT 1/2SM SN FG VV006
     FM052000 34015G25KT 4SM -SN BR SCT008 OVC012
     FM052300 32015KT P6SM SCT030 BKN100=



000
FTUS41 KGYX 051136
TAFAUG
TAF
KAUG 051136Z 0512/0612 01010G18KT 3SM -SN OVC020
     FM051500 36012KT 1/2SM SN VV006
     FM051900 34014KT 4SM -SHSN SCT020 BKN035 OVC070
     FM052300 32010KT P6SM SCT040 BKN080=



000
FTUS41 KGYX 051136
TAFPSM
TAF
KPSM 051136Z 0512/0612 36008KT 3/4SM -SN BR OVC003
     FM051300 34010G20KT 1/2SM SN VV006
     FM052000 32015G25KT P6SM -SHSN BKN035 BKN080
     FM052300 32015G20KT P6SM SCT040 BKN100=



000
FTUS41 KGYX 051136
TAFCON
TAF
KCON 051136Z 0512/0612 34005KT 1SM -SN BR OVC017
     FM051300 34010KT 3/4SM -SN OVC008
     FM051800 33012KT P6SM -SHSN BKN035 OVC080
     FM052100 32010KT P6SM SCT040 SCT100=



000
FTUS41 KGYX 051136
TAFLEB
TAF
KLEB 051136Z 0512/0612 00000KT P6SM OVC070
     FM051300 35007KT 5SM -SHSN SCT025 OVC035
     FM051900 34009KT P6SM SCT045 BKN100=



000
FTUS41 KGYX 051136
TAFLEB
TAF
KLEB 051136Z 0512/0612 00000KT P6SM OVC070
     FM051300 35007KT 5SM -SHSN SCT025 OVC035
     FM051900 34009KT P6SM SCT045 BKN100=



000
FTUS41 KGYX 051136
TAFAUG
TAF
KAUG 051136Z 0512/0612 01010G18KT 3SM -SN OVC020
     FM051500 36012KT 1/2SM SN VV006
     FM051900 34014KT 4SM -SHSN SCT020 BKN035 OVC070
     FM052300 32010KT P6SM SCT040 BKN080=



000
FTUS41 KGYX 051136
TAFPWM
TAF
KPWM 051136Z 0512/0612 01007KT 1 1/2SM -SN BR OVC017
     FM051300 36015G25KT 1/2SM SN FG VV006
     FM052000 34015G25KT 4SM -SN BR SCT008 OVC012
     FM052300 32015KT P6SM SCT030 BKN100=



000
FTUS41 KGYX 051136
TAFPSM
TAF
KPSM 051136Z 0512/0612 36008KT 3/4SM -SN BR OVC003
     FM051300 34010G20KT 1/2SM SN VV006
     FM052000 32015G25KT P6SM -SHSN BKN035 BKN080
     FM052300 32015G20KT P6SM SCT040 BKN100=



000
FTUS41 KGYX 051009 AAA
TAFLEB
TAF AMD
KLEB 051009Z 0510/0606 00000KT P6SM OVC110
     FM051300 35007KT 5SM -SHSN SCT025 OVC035
     FM051900 34009KT P6SM SCT045 BKN100=



000
FTUS41 KGYX 051009 AAA
TAFLEB
TAF AMD
KLEB 051009Z 0510/0606 00000KT P6SM OVC110
     FM051300 35007KT 5SM -SHSN SCT025 OVC035
     FM051900 34009KT P6SM SCT045 BKN100=



000
FTUS41 KGYX 051008 AAA
TAFAUG
TAF AMD
KAUG 051008Z 0510/0606 02010KT P6SM OVC060
     FM051200 34010KT 3SM -SN SCT030 OVC050
     FM051500 36012KT 1/2SM SN FG VV006
     FM051900 34014KT 4SM -SHSN SCT020 BKN035 OVC070
     FM052300 32010KT P6SM SCT040 BKN080=



000
FTUS41 KGYX 051007 AAA
TAFPSM
TAF AMD
KPSM 051007Z 0510/0606 34006KT 3SM -SN BKN025 OVC040
     FM051300 34010G20KT 1/2SM SN VV006
     FM052000 32015G25KT P6SM -SHSN BKN035 BKN080
     FM052300 32015G20KT P6SM SCT040 BKN100=



000
FTUS41 KGYX 051007 AAA
TAFPSM
TAF AMD
KPSM 051007Z 0510/0606 34006KT 3SM -SN BKN025 OVC040
     FM051300 34010G20KT 1/2SM SN VV006
     FM052000 32015G25KT P6SM -SHSN BKN035 BKN080
     FM052300 32015G20KT P6SM SCT040 BKN100=



000
FTUS41 KGYX 051005 AAA
TAFCON
TAF AMD
KCON 051005Z 0510/0606 33006KT P6SM -SN OVC030
     FM051300 34010KT 3/4SM -SN OVC008
     FM051900 33012KT P6SM -SHSN BKN035 OVC080
     FM052100 32010KT P6SM SCT040 SCT100=



000
FTUS41 KGYX 051002 AAA
TAFPWM
TAF AMD
KPWM 051002Z 0510/0606 01008KT P6SM -SN OVC035
     FM051200 36010KT 2SM -SN OVC012
     FM051400 36015G25KT 1/2SM SN FG VV006
     FM052000 34015G25KT 4SM -SN BR SCT008 OVC012
     FM052300 32015KT P6SM SCT030 BKN100=



000
FTUS41 KGYX 050538
TAFPWM
TAF
KPWM 050538Z 0506/0606 01007KT P6SM BKN045 OVC100
     FM050900 01008KT 4SM -SN OVC040
     FM051200 36010KT 2SM -SN OVC012
     FM051400 36015G25KT 1/2SM SN FG VV006
     FM052000 34015G25KT 4SM -SN BR SCT008 OVC012
     FM052300 32015KT P6SM SCT030 BKN100=



000
FTUS41 KGYX 050538
TAFAUG
TAF
KAUG 050538Z 0506/0606 35007KT P6SM OVC045
     FM051200 34010KT 3SM -SN SCT030 OVC050
     FM051500 36012KT 1/2SM SN FG VV006
     FM051900 34014KT 4SM -SHSN SCT020 BKN035 OVC070
     FM052300 32010KT P6SM SCT040 BKN080=



000
FTUS41 KGYX 050538
TAFPWM
TAF
KPWM 050538Z 0506/0606 01007KT P6SM BKN045 OVC100
     FM050900 01008KT 4SM -SN OVC040
     FM051200 36010KT 2SM -SN OVC012
     FM051400 36015G25KT 1/2SM SN FG VV006
     FM052000 34015G25KT 4SM -SN BR SCT008 OVC012
     FM052300 32015KT P6SM SCT030 BKN100=



000
FTUS41 KGYX 050538
TAFCON
TAF
KCON 050538Z 0506/0606 33003KT P6SM OVC100
     FM051000 33006KT 3SM -SN SCT030 OVC050
     FM051300 34010KT 3/4SM -SN OVC008
     FM051900 33012KT P6SM -SHSN BKN035 OVC080
     FM052100 32010KT P6SM SCT040 SCT100=



000
FTUS41 KGYX 050538
TAFLEB
TAF
KLEB 050538Z 0506/0606 VRB03KT P6SM OVC045
     FM050900 35009KT P6SM BKN040 OVC100
     FM051300 35007KT 5SM -SHSN SCT025 OVC035
     FM051900 34009KT P6SM SCT045 BKN100=



000
FTUS41 KGYX 050538
TAFPSM
TAF
KPSM 050538Z 0506/0606 27004KT P6SM BKN045 OVC090
     FM050900 34006KT 3SM -SN BKN025 OVC040
     FM051300 34010G20KT 1/2SM SN VV006
     FM052000 32015G25KT P6SM -SHSN BKN035 BKN080
     FM052300 32015G20KT P6SM SCT040 BKN100=



000
FTUS41 KGYX 050538
TAFPSM
TAF
KPSM 050538Z 0506/0606 27004KT P6SM BKN045 OVC090
     FM050900 34006KT 3SM -SN BKN025 OVC040
     FM051300 34010G20KT 1/2SM SN VV006
     FM052000 32015G25KT P6SM -SHSN BKN035 BKN080
     FM052300 32015G20KT P6SM SCT040 BKN100=



000
FTUS41 KGYX 050538
TAFAUG
TAF
KAUG 050538Z 0506/0606 35007KT P6SM OVC045
     FM051200 34010KT 3SM -SN SCT030 OVC050
     FM051500 36012KT 1/2SM SN FG VV006
     FM051900 34014KT 4SM -SHSN SCT020 BKN035 OVC070
     FM052300 32010KT P6SM SCT040 BKN080=



000
FTUS41 KGYX 050538
TAFCON
TAF
KCON 050538Z 0506/0606 33003KT P6SM OVC100
     FM051000 33006KT 3SM -SN SCT030 OVC050
     FM051300 34010KT 3/4SM -SN OVC008
     FM051900 33012KT P6SM -SHSN BKN035 OVC080
     FM052100 32010KT P6SM SCT040 SCT100=



000
FTUS41 KGYX 050538
TAFLEB
TAF
KLEB 050538Z 0506/0606 VRB03KT P6SM OVC045
     FM050900 35009KT P6SM BKN040 OVC100
     FM051300 35007KT 5SM -SHSN SCT025 OVC035
     FM051900 34009KT P6SM SCT045 BKN100=



000
FTUS41 KGYX 050158 AAA
TAFPWM
TAF AMD
KPWM 050158Z 0502/0524 34005KT P6SM BKN045 BKN100
     FM050900 35004KT 3SM -SN OVC040
     FM051200 36010KT 2SM -SN OVC012
     FM051500 36015G25KT 3/4SM -SN BR VV006
     FM052000 33015G25KT 3SM -SN BR SCT008 OVC012=



000
FTUS41 KGYX 050158 AAA
TAFPWM
TAF AMD
KPWM 050158Z 0502/0524 34005KT P6SM BKN045 BKN100
     FM050900 35004KT 3SM -SN OVC040
     FM051200 36010KT 2SM -SN OVC012
     FM051500 36015G25KT 3/4SM -SN BR VV006
     FM052000 33015G25KT 3SM -SN BR SCT008 OVC012=



000
FTUS41 KGYX 042326
TAFPWM
TAF
KPWM 042326Z 0500/0524 30006KT P6SM SCT040 BKN100
     FM050900 35004KT 3SM -SN OVC040
     FM051200 36010KT 2SM -SN OVC012
     FM051500 36015G25KT 3/4SM -SN BR VV006
     FM052000 33015G25KT 3SM -SN BR SCT008 OVC012=



000
FTUS41 KGYX 042326
TAFCON
TAF
KCON 042326Z 0500/0524 32008KT P6SM SCT100 BKN200
     FM051000 35010KT 3SM -SN SCT030 OVC050
     FM051300 36006KT 1 1/2SM -SN BKN012 OVC020
     FM051800 33012KT P6SM -SHSN BKN035 OVC080
     FM052100 32010KT P6SM SCT040 SCT100=



000
FTUS41 KGYX 042326
TAFLEB
TAF
KLEB 042326Z 0500/0524 VRB03KT P6SM SCT040 BKN200
     FM050900 35009KT P6SM BKN040 OVC100
     FM051300 35007KT 5SM -SHSN SCT025 OVC035
     FM051800 34009KT P6SM SCT045 BKN100=



000
FTUS41 KGYX 042326
TAFPSM
TAF
KPSM 042326Z 0500/0524 25007KT P6SM BKN100
     FM050900 34006KT 3SM -SN BKN025 OVC040
     FM051100 34010KT 1SM -SN OVC012
     FM051300 35010G20KT 1/2SM SN OVC007
     FM052000 32015G25KT P6SM -SHSN BKN035 BKN080=



000
FTUS41 KGYX 042326
TAFAUG
TAF
KAUG 042326Z 0500/0524 30005KT P6SM OVC050
     FM051200 36010KT 3SM -SN SCT030 OVC050
     FM051500 36012KT 1 1/2SM -SN BR BKN012 OVC020
     FM051900 34014KT 5SM -SHSN SCT020 BKN035 OVC070
     FM052100 32010KT P6SM SCT040 BKN080=



    US Dept of Commerce
    National Oceanic and Atmospheric Administration
    National Weather Service
    1325 East West Highway
    Silver Spring, MD 20910
    Page Author: NWS Internet Services Team
Disclaimer
Information Quality
Credits
Glossary
Privacy Policy
Freedom of Information Act (FOIA)
About Us
Career Opportunities